Time;durP1;ratioP1;P1;durP2;ratioP2;P2;SDS_P1;SDS_P2;PMS_P1;PMS_P2;Temp;Humidity;BMP_temperature;BMP_pressure;BME280_temperature;BME280_humidity;BME280_pressure;Samples;Min_cycle;Max_cycle;Signal;HPM_P1;HPM_P2
2023/01/29 00:00:37;;;;;;;;;;;3.20;99.90;;;;;;5119808;28;20022;-80
2023/01/29 00:03:03;;;;;;;;;;;3.20;99.90;;;;;;5105737;27;19923;-81
2023/01/29 00:05:28;;;;;;;;;;;3.20;99.90;;;;;;5123436;27;19927;-81
2023/01/29 00:07:55;;;;;;;;;;;3.20;99.90;;;;;;5121422;27;20002;-80
2023/01/29 00:10:20;;;;;;;;;;;3.20;99.90;;;;;;5122694;27;19978;-81
2023/01/29 00:12:46;;;;;;;;;;;3.20;99.90;;;;;;5123114;27;19959;-80
2023/01/29 00:15:11;;;;;;;;;;;3.10;99.90;;;;;;5124604;27;19924;-80
2023/01/29 00:17:37;;;;;;;;;;;3.10;99.90;;;;;;5107423;27;19927;-80
2023/01/29 00:20:02;;;;;;;;;;;3.10;99.90;;;;;;5108468;27;19962;-80
2023/01/29 00:22:29;;;;;;;;;;;3.10;99.90;;;;;;5118454;27;19996;-81
2023/01/29 00:24:54;;;;;;;;;;;3.10;99.90;;;;;;5096319;27;20038;-80
2023/01/29 00:27:20;;;;;;;;;;;3.10;99.90;;;;;;5120593;27;20472;-81
2023/01/29 00:30:07;;;;;;;;;;;3.10;99.90;;;;;;5126204;27;19923;-81
2023/01/29 00:32:31;;;;;;;;;;;3.10;99.90;;;;;;5132527;27;20018;-81
2023/01/29 00:34:56;;;;;;;;;;;3.10;99.90;;;;;;5141227;27;19924;-81
2023/01/29 00:37:22;;;;;;;;;;;3.10;99.90;;;;;;5125767;27;20512;-81
2023/01/29 00:39:48;;;;;;;;;;;3.10;99.90;;;;;;5123193;27;19935;-81
2023/01/29 00:44:58;;;;;;;;;;;3.10;99.90;;;;;;5134721;27;20410;-81
2023/01/29 00:47:29;;;;;;;;;;;3.10;99.90;;;;;;5124499;27;19927;-81
2023/01/29 00:49:55;;;;;;;;;;;3.20;99.90;;;;;;5124588;27;19923;-81
2023/01/29 00:52:24;;;;;;;;;;;3.10;99.90;;;;;;5123509;27;20381;-81
2023/01/29 00:54:51;;;;;;;;;;;3.20;99.90;;;;;;5142559;27;19923;-81
2023/01/29 00:57:16;;;;;;;;;;;3.20;99.90;;;;;;5105977;27;19928;-81
2023/01/29 00:59:42;;;;;;;;;;;3.20;99.90;;;;;;5143324;27;19924;-81
2023/01/29 01:04:52;;;;;;;;;;;3.20;99.90;;;;;;5129372;27;19927;-81
2023/01/29 01:07:17;;;;;;;;;;;3.20;99.90;;;;;;5124783;27;20002;-80
2023/01/29 01:12:28;;;;;;;;;;;3.20;99.90;;;;;;5137786;27;19976;-81
2023/01/29 01:14:53;;;;;;;;;;;3.20;99.90;;;;;;5121473;27;20007;-81
2023/01/29 01:17:19;;;;;;;;;;;3.20;99.90;;;;;;5123144;27;19931;-81
2023/01/29 01:19:44;;;;;;;;;;;3.20;99.90;;;;;;5122122;27;19982;-80
2023/01/29 01:22:10;;;;;;;;;;;3.20;99.90;;;;;;5123088;27;19927;-81
2023/01/29 01:24:36;;;;;;;;;;;3.30;99.90;;;;;;5124094;27;20354;-80
2023/01/29 01:27:01;;;;;;;;;;;3.30;99.90;;;;;;5106488;27;19931;-81
2023/01/29 01:29:27;;;;;;;;;;;3.30;99.90;;;;;;5119994;27;19923;-81
2023/01/29 01:31:53;;;;;;;;;;;3.30;99.90;;;;;;5129599;27;19950;-81
2023/01/29 01:34:18;;;;;;;;;;;3.30;99.90;;;;;;5117765;28;19975;-81
2023/01/29 01:36:44;;;;;;;;;;;3.30;99.90;;;;;;5089829;27;19967;-80
2023/01/29 01:39:10;;;;;;;;;;;3.30;99.90;;;;;;5137575;27;19934;-81
2023/01/29 01:41:35;;;;;;;;;;;3.40;99.90;;;;;;5107319;27;19927;-81
2023/01/29 01:44:02;;;;;;;;;;;3.30;99.90;;;;;;5122272;27;19938;-81
2023/01/29 01:46:29;;;;;;;;;;;3.40;99.90;;;;;;5123223;27;20027;-81
2023/01/29 01:48:57;;;;;;;;;;;3.30;99.90;;;;;;5117707;28;19983;-81
2023/01/29 01:51:25;;;;;;;;;;;3.40;99.90;;;;;;5123744;27;20386;-80
2023/01/29 01:53:57;;;;;;;;;;;3.30;99.90;;;;;;5134782;27;19937;-81
2023/01/29 01:56:25;;;;;;;;;;;3.40;99.90;;;;;;5109414;27;19930;-81
2023/01/29 01:58:53;;;;;;;;;;;3.40;99.90;;;;;;5106097;27;19924;-81
2023/01/29 02:01:27;;;;;;;;;;;3.40;99.90;;;;;;5121221;27;19932;-81
2023/01/29 02:09:34;;;;;;;;;;;3.40;99.90;;;;;;5120912;27;19988;-81
2023/01/29 02:12:00;;;;;;;;;;;3.40;99.90;;;;;;5106686;27;19928;-80
2023/01/29 02:14:26;;;;;;;;;;;3.40;99.90;;;;;;5104703;27;19924;-81
2023/01/29 02:16:52;;;;;;;;;;;3.40;99.90;;;;;;5122695;27;19971;-80
2023/01/29 02:19:38;;;;;;;;;;;3.40;99.90;;;;;;5120167;27;19934;-81
2023/01/29 02:22:12;;;;;;;;;;;3.40;99.90;;;;;;5124338;27;19930;-81
2023/01/29 02:24:58;;;;;;;;;;;3.40;99.90;;;;;;5123310;27;20256;-81
2023/01/29 02:27:41;;;;;;;;;;;3.40;99.90;;;;;;5114978;27;19934;-80
2023/01/29 02:30:21;;;;;;;;;;;3.40;99.90;;;;;;5114440;27;20390;-81
2023/01/29 02:32:57;;;;;;;;;;;3.50;99.90;;;;;;5105384;27;19934;-80
2023/01/29 02:35:30;;;;;;;;;;;3.40;99.90;;;;;;5117332;27;19923;-80
2023/01/29 02:38:00;;;;;;;;;;;3.40;99.90;;;;;;5121734;27;19924;-81
2023/01/29 02:40:49;;;;;;;;;;;3.50;99.90;;;;;;5118637;27;19930;-81
2023/01/29 02:43:22;;;;;;;;;;;3.40;99.90;;;;;;5090859;28;19935;-81
2023/01/29 02:45:48;;;;;;;;;;;3.50;99.90;;;;;;5117228;28;19931;-81
2023/01/29 02:48:19;;;;;;;;;;;3.50;99.90;;;;;;5109037;28;19923;-80
2023/01/29 02:50:53;;;;;;;;;;;3.50;99.90;;;;;;5112425;28;19924;-81
2023/01/29 02:53:28;;;;;;;;;;;3.50;99.90;;;;;;5117242;28;19923;-81
2023/01/29 02:56:00;;;;;;;;;;;3.50;99.90;;;;;;5096595;28;19924;-80
2023/01/29 02:58:35;;;;;;;;;;;3.50;99.90;;;;;;5119259;28;19957;-80
2023/01/29 03:01:05;;;;;;;;;;;3.50;99.90;;;;;;5116082;28;19935;-80
2023/01/29 03:03:34;;;;;;;;;;;3.50;99.90;;;;;;5119566;28;19936;-80
2023/01/29 03:06:05;;;;;;;;;;;3.50;99.90;;;;;;5100737;28;19931;-81
2023/01/29 03:08:41;;;;;;;;;;;3.50;99.90;;;;;;5119162;28;20398;-81
2023/01/29 03:11:12;;;;;;;;;;;3.50;99.90;;;;;;5115830;28;19932;-80
2023/01/29 03:13:47;;;;;;;;;;;3.50;99.90;;;;;;5107170;28;19928;-80
2023/01/29 03:16:17;;;;;;;;;;;3.50;99.90;;;;;;5120731;28;20386;-81
2023/01/29 03:18:49;;;;;;;;;;;3.50;99.90;;;;;;5117760;28;19934;-81
2023/01/29 03:21:57;;;;;;;;;;;3.60;99.90;;;;;;5111263;28;19946;-80
2023/01/29 03:32:50;;;;;;;;;;;3.50;99.90;;;;;;5116178;28;19934;-80
2023/01/29 03:35:20;;;;;;;;;;;3.50;99.90;;;;;;5112568;28;19949;-81
2023/01/29 03:37:47;;;;;;;;;;;3.50;99.90;;;;;;5118332;28;19924;-81
2023/01/29 03:40:13;;;;;;;;;;;3.50;99.90;;;;;;5121823;28;19927;-81
2023/01/29 03:42:45;;;;;;;;;;;3.60;99.90;;;;;;5102627;28;19931;-80
2023/01/29 03:45:30;;;;;;;;;;;3.50;99.90;;;;;;5116543;27;19924;-80
2023/01/29 03:48:02;;;;;;;;;;;3.50;99.90;;;;;;5105473;28;19923;-80
2023/01/29 03:50:40;;;;;;;;;;;3.60;99.90;;;;;;5117565;28;19931;-80
2023/01/29 03:53:21;;;;;;;;;;;3.60;99.90;;;;;;5120031;28;19935;-80
2023/01/29 03:55:54;;;;;;;;;;;3.60;99.90;;;;;;5104655;28;19923;-80
2023/01/29 03:58:38;;;;;;;;;;;3.60;99.90;;;;;;5104540;28;19927;-81
2023/01/29 04:01:16;;;;;;;;;;;3.60;99.90;;;;;;5097599;28;19924;-81
2023/01/29 04:03:47;;;;;;;;;;;3.60;99.90;;;;;;5115435;28;19928;-81
2023/01/29 04:06:19;;;;;;;;;;;3.60;99.90;;;;;;5093067;28;19923;-81
2023/01/29 04:08:48;;;;;;;;;;;3.60;99.90;;;;;;5096460;28;19924;-81
2023/01/29 04:11:15;;;;;;;;;;;3.70;99.90;;;;;;5117127;28;19923;-81
2023/01/29 04:13:42;;;;;;;;;;;3.70;99.90;;;;;;5120419;28;19971;-81
2023/01/29 04:16:13;;;;;;;;;;;3.70;99.90;;;;;;5120397;28;19923;-81
2023/01/29 04:18:38;;;;;;;;;;;3.70;99.90;;;;;;5109032;28;20016;-81
2023/01/29 04:21:06;;;;;;;;;;;3.70;99.90;;;;;;5101259;28;19928;-80
2023/01/29 04:23:31;;;;;;;;;;;3.70;99.90;;;;;;5121119;28;19928;-81
2023/01/29 04:26:12;;;;;;;;;;;3.70;99.90;;;;;;5101679;28;19923;-80
2023/01/29 04:28:53;;;;;;;;;;;3.70;99.90;;;;;;5126624;27;19953;-81
2023/01/29 04:31:22;;;;;;;;;;;3.70;99.90;;;;;;5120757;28;19954;-81
2023/01/29 04:34:06;;;;;;;;;;;3.70;99.90;;;;;;5121802;28;19970;-81
2023/01/29 04:36:51;;;;;;;;;;;3.70;99.90;;;;;;5117872;28;19923;-81
2023/01/29 04:39:20;;;;;;;;;;;3.70;99.90;;;;;;5116597;28;19930;-81
2023/01/29 04:41:51;;;;;;;;;;;3.70;99.90;;;;;;5122274;28;20015;-81
2023/01/29 04:44:36;;;;;;;;;;;3.70;99.90;;;;;;5120304;28;19924;-80
2023/01/29 04:47:01;;;;;;;;;;;3.70;99.90;;;;;;5094416;28;20453;-81
2023/01/29 04:49:44;;;;;;;;;;;3.70;99.90;;;;;;5099237;28;19932;-81
2023/01/29 04:52:12;;;;;;;;;;;3.70;99.90;;;;;;5080460;28;20387;-81
2023/01/29 04:54:44;;;;;;;;;;;3.70;99.90;;;;;;5095152;28;20014;-81
2023/01/29 04:57:12;;;;;;;;;;;3.70;99.90;;;;;;5077794;28;20034;-81
2023/01/29 04:59:41;;;;;;;;;;;3.80;99.90;;;;;;5087465;28;19987;-81
2023/01/29 05:02:08;;;;;;;;;;;3.80;99.90;;;;;;5099932;28;19924;-81
2023/01/29 05:04:34;;;;;;;;;;;3.80;99.90;;;;;;5100417;28;19924;-81
2023/01/29 05:07:01;;;;;;;;;;;3.80;99.90;;;;;;5093540;28;19929;-81
2023/01/29 05:09:28;;;;;;;;;;;3.80;99.90;;;;;;5096889;28;19959;-81
2023/01/29 05:11:54;;;;;;;;;;;3.80;99.90;;;;;;5100732;28;19924;-81
2023/01/29 05:14:20;;;;;;;;;;;3.80;99.90;;;;;;5095014;28;19932;-81
2023/01/29 05:16:49;;;;;;;;;;;3.80;99.90;;;;;;5068799;28;19935;-81
2023/01/29 05:19:15;;;;;;;;;;;3.80;99.90;;;;;;5073031;28;19924;-81
2023/01/29 05:21:43;;;;;;;;;;;3.90;99.90;;;;;;5095041;28;19924;-81
2023/01/29 05:24:14;;;;;;;;;;;3.80;99.90;;;;;;5100764;28;19924;-81
2023/01/29 05:29:25;;;;;;;;;;;3.90;99.90;;;;;;5082482;28;19924;-82
2023/01/29 05:31:51;;;;;;;;;;;3.80;99.90;;;;;;5077664;28;20416;-81
2023/01/29 05:34:16;;;;;;;;;;;3.90;99.90;;;;;;5099906;28;19928;-81
2023/01/29 05:36:42;;;;;;;;;;;3.80;99.90;;;;;;5079300;28;19964;-81
2023/01/29 05:39:07;;;;;;;;;;;3.80;99.90;;;;;;5074403;28;19931;-81
2023/01/29 05:41:33;;;;;;;;;;;3.80;99.90;;;;;;5080427;28;19924;-81
2023/01/29 05:43:58;;;;;;;;;;;3.80;99.90;;;;;;5096148;28;19950;-81
2023/01/29 05:46:24;;;;;;;;;;;3.80;99.90;;;;;;5063950;28;19950;-81
2023/01/29 05:48:53;;;;;;;;;;;3.80;99.90;;;;;;5077655;28;19935;-81
2023/01/29 05:51:18;;;;;;;;;;;3.80;99.90;;;;;;5074380;28;19924;-81
2023/01/29 05:53:44;;;;;;;;;;;3.80;99.90;;;;;;5105313;28;19966;-81
2023/01/29 05:56:09;;;;;;;;;;;3.80;99.90;;;;;;5099503;28;19947;-81
2023/01/29 05:58:35;;;;;;;;;;;3.80;99.90;;;;;;5099180;28;19963;-81
2023/01/29 06:01:08;;;;;;;;;;;3.80;99.90;;;;;;5097981;28;19928;-81
2023/01/29 06:03:34;;;;;;;;;;;3.80;99.90;;;;;;5091067;28;19960;-81
2023/01/29 06:06:00;;;;;;;;;;;3.70;99.90;;;;;;5095350;28;19950;-81
2023/01/29 06:08:26;;;;;;;;;;;3.70;99.90;;;;;;5079507;28;19928;-81
2023/01/29 06:10:51;;;;;;;;;;;3.70;99.90;;;;;;5090336;28;19955;-81
2023/01/29 06:13:17;;;;;;;;;;;3.70;99.90;;;;;;5073677;28;19924;-81
2023/01/29 06:15:42;;;;;;;;;;;3.60;99.90;;;;;;5082947;28;20382;-81
2023/01/29 06:18:08;;;;;;;;;;;3.70;99.90;;;;;;5097562;28;19967;-81
2023/01/29 06:20:33;;;;;;;;;;;3.70;99.90;;;;;;5091672;28;19925;-81
2023/01/29 06:22:59;;;;;;;;;;;3.70;99.90;;;;;;5094749;28;19928;-81
2023/01/29 06:25:25;;;;;;;;;;;3.60;99.90;;;;;;5068048;28;19947;-81
2023/01/29 06:27:50;;;;;;;;;;;3.70;99.90;;;;;;5077583;28;19946;-81
2023/01/29 06:30:16;;;;;;;;;;;3.60;99.90;;;;;;5069757;28;19931;-81
2023/01/29 06:32:41;;;;;;;;;;;3.70;99.90;;;;;;5090348;28;19924;-81
2023/01/29 06:35:08;;;;;;;;;;;3.60;99.90;;;;;;5094667;28;19954;-81
2023/01/29 06:37:34;;;;;;;;;;;3.70;99.90;;;;;;5099202;28;20002;-81
2023/01/29 06:40:00;;;;;;;;;;;3.70;99.90;;;;;;5080298;28;19971;-81
2023/01/29 06:42:26;;;;;;;;;;;3.60;99.90;;;;;;5074119;28;20927;-80
2023/01/29 06:44:55;;;;;;;;;;;3.60;99.90;;;;;;5097857;28;19924;-81
2023/01/29 06:47:22;;;;;;;;;;;3.60;99.90;;;;;;5109923;28;19971;-81
2023/01/29 06:49:47;;;;;;;;;;;3.60;99.90;;;;;;5119145;28;19932;-81
2023/01/29 06:52:13;;;;;;;;;;;3.60;99.90;;;;;;5112381;28;20136;-81
2023/01/29 06:54:38;;;;;;;;;;;3.60;99.90;;;;;;5093577;28;19959;-81
2023/01/29 06:57:04;;;;;;;;;;;3.70;99.90;;;;;;5111022;28;19930;-81
2023/01/29 06:59:30;;;;;;;;;;;3.60;99.90;;;;;;5117612;28;19924;-81
2023/01/29 07:01:55;;;;;;;;;;;3.60;99.90;;;;;;5098381;28;19970;-81
2023/01/29 07:04:21;;;;;;;;;;;3.60;99.90;;;;;;5118808;28;19924;-81
2023/01/29 07:06:46;;;;;;;;;;;3.70;99.90;;;;;;5098310;28;20006;-80
2023/01/29 07:09:15;;;;;;;;;;;3.70;99.90;;;;;;5095909;28;19935;-82
2023/01/29 07:11:40;;;;;;;;;;;3.70;99.90;;;;;;5117830;28;19935;-81
2023/01/29 07:14:06;;;;;;;;;;;3.70;99.90;;;;;;5090611;28;19935;-81
2023/01/29 07:16:32;;;;;;;;;;;3.70;99.90;;;;;;5123462;28;19955;-81
2023/01/29 07:18:57;;;;;;;;;;;3.70;99.90;;;;;;5121397;28;20330;-81
2023/01/29 07:21:23;;;;;;;;;;;3.70;99.90;;;;;;5123104;28;19928;-81
2023/01/29 07:23:49;;;;;;;;;;;3.70;99.90;;;;;;5113865;28;19963;-81
2023/01/29 07:26:14;;;;;;;;;;;3.70;99.90;;;;;;5100299;28;19975;-81
2023/01/29 07:28:40;;;;;;;;;;;3.80;99.90;;;;;;5109970;28;19957;-81
2023/01/29 07:31:06;;;;;;;;;;;3.80;99.90;;;;;;5084314;28;20375;-81
2023/01/29 07:33:32;;;;;;;;;;;3.70;99.90;;;;;;5117232;28;19959;-80
2023/01/29 07:35:58;;;;;;;;;;;3.80;99.90;;;;;;5095544;28;19924;-82
2023/01/29 07:38:24;;;;;;;;;;;3.80;99.90;;;;;;5103518;28;19986;-82
2023/01/29 07:40:51;;;;;;;;;;;3.80;99.90;;;;;;5118370;28;19971;-81
2023/01/29 07:43:16;;;;;;;;;;;3.80;99.90;;;;;;5119778;28;19924;-81
2023/01/29 07:45:42;;;;;;;;;;;3.80;99.90;;;;;;5090459;28;19931;-81
2023/01/29 07:48:09;;;;;;;;;;;3.80;99.90;;;;;;5110060;28;19930;-81
2023/01/29 07:50:34;;;;;;;;;;;3.70;99.90;;;;;;5105481;28;19943;-81
2023/01/29 07:53:00;;;;;;;;;;;3.80;99.90;;;;;;5121175;28;19924;-81
2023/01/29 07:55:26;;;;;;;;;;;3.80;99.90;;;;;;5112691;28;19952;-81
2023/01/29 07:57:59;;;;;;;;;;;3.80;99.90;;;;;;5121420;28;20290;-81
2023/01/29 08:00:24;;;;;;;;;;;3.80;99.90;;;;;;5119885;28;19932;-81
2023/01/29 08:02:50;;;;;;;;;;;3.80;99.90;;;;;;5117369;28;19924;-80
2023/01/29 08:05:15;;;;;;;;;;;3.80;99.90;;;;;;5094153;28;19927;-83
2023/01/29 08:07:41;;;;;;;;;;;3.80;99.90;;;;;;5111391;28;20043;-81
2023/01/29 08:10:07;;;;;;;;;;;3.80;99.90;;;;;;5115576;28;19923;-81
2023/01/29 08:12:32;;;;;;;;;;;3.80;99.90;;;;;;5108130;28;20397;-82
2023/01/29 08:14:58;;;;;;;;;;;3.80;99.90;;;;;;5121029;28;19924;-81
2023/01/29 08:17:24;;;;;;;;;;;3.80;99.90;;;;;;5118138;28;19955;-81
2023/01/29 08:19:49;;;;;;;;;;;3.80;99.90;;;;;;5098512;28;20104;-81
2023/01/29 08:22:15;;;;;;;;;;;3.90;99.90;;;;;;5093831;28;19924;-81
2023/01/29 08:24:41;;;;;;;;;;;3.80;99.90;;;;;;5118238;28;19924;-81
2023/01/29 08:27:07;;;;;;;;;;;3.80;99.90;;;;;;5092949;28;19981;-81
2023/01/29 08:29:32;;;;;;;;;;;3.80;99.90;;;;;;5114793;28;19923;-81
2023/01/29 08:31:58;;;;;;;;;;;3.80;99.90;;;;;;5095110;28;19924;-81
2023/01/29 08:34:23;;;;;;;;;;;3.80;99.90;;;;;;5094043;28;19928;-81
2023/01/29 08:36:49;;;;;;;;;;;3.80;99.90;;;;;;5115076;28;19927;-81
2023/01/29 08:39:14;;;;;;;;;;;3.80;99.90;;;;;;5112040;28;19963;-82
2023/01/29 08:41:40;;;;;;;;;;;3.80;99.90;;;;;;5116494;28;19924;-82
2023/01/29 08:44:08;;;;;;;;;;;3.80;99.90;;;;;;5102467;28;20457;-81
2023/01/29 08:46:34;;;;;;;;;;;3.90;99.90;;;;;;5082547;28;19987;-81
2023/01/29 08:48:59;;;;;;;;;;;3.80;99.90;;;;;;5094117;28;19939;-81
2023/01/29 08:51:25;;;;;;;;;;;3.80;99.90;;;;;;5090579;28;20049;-81
2023/01/29 08:53:51;;;;;;;;;;;3.90;99.90;;;;;;5100384;28;20332;-81
2023/01/29 08:56:16;;;;;;;;;;;3.90;99.90;;;;;;5083264;28;19924;-82
2023/01/29 08:58:42;;;;;;;;;;;3.80;99.90;;;;;;5111595;28;19924;-81
2023/01/29 09:01:08;;;;;;;;;;;3.90;99.90;;;;;;5098501;28;19924;-81
2023/01/29 09:03:34;;;;;;;;;;;3.90;99.90;;;;;;5076229;28;19931;-82
2023/01/29 09:05:59;;;;;;;;;;;3.90;99.90;;;;;;5099633;28;21711;-81
2023/01/29 09:08:25;;;;;;;;;;;3.80;99.90;;;;;;5101935;28;20770;-81
2023/01/29 09:10:51;;;;;;;;;;;3.90;99.90;;;;;;5079039;28;19985;-81
2023/01/29 09:13:16;;;;;;;;;;;3.90;99.90;;;;;;5076220;28;19974;-82
2023/01/29 09:15:42;;;;;;;;;;;3.80;99.90;;;;;;5101097;28;19935;-81
2023/01/29 09:18:07;;;;;;;;;;;3.90;99.90;;;;;;5055496;28;20030;-82
2023/01/29 09:20:34;;;;;;;;;;;3.90;99.90;;;;;;5110210;28;20061;-81
2023/01/29 09:23:03;;;;;;;;;;;3.90;99.90;;;;;;5098035;28;19928;-81
2023/01/29 09:25:28;;;;;;;;;;;4.00;99.90;;;;;;5100372;28;19954;-82
2023/01/29 09:27:54;;;;;;;;;;;4.00;99.90;;;;;;5102458;28;19924;-81
2023/01/29 09:30:20;;;;;;;;;;;4.00;99.90;;;;;;5097083;28;19963;-82
2023/01/29 09:32:45;;;;;;;;;;;4.10;99.90;;;;;;5094597;28;20023;-81
2023/01/29 09:35:11;;;;;;;;;;;4.10;99.90;;;;;;5076516;28;19931;-81
2023/01/29 09:37:36;;;;;;;;;;;4.10;99.90;;;;;;5083443;28;19996;-81
2023/01/29 09:40:02;;;;;;;;;;;4.10;99.90;;;;;;5093974;28;19994;-82
2023/01/29 09:42:29;;;;;;;;;;;4.20;99.90;;;;;;5094624;28;20023;-81
2023/01/29 09:45:04;;;;;;;;;;;4.30;99.90;;;;;;5095837;28;19930;-81
2023/01/29 09:47:32;;;;;;;;;;;4.30;99.90;;;;;;5092124;28;19969;-82
2023/01/29 09:50:16;;;;;;;;;;;4.40;99.90;;;;;;5118077;28;19928;-81
2023/01/29 09:52:46;;;;;;;;;;;4.40;99.90;;;;;;5109269;28;19945;-81
2023/01/29 09:55:24;;;;;;;;;;;4.50;99.90;;;;;;5100800;28;19924;-82
2023/01/29 09:57:54;;;;;;;;;;;4.50;99.90;;;;;;5119885;28;19927;-81
2023/01/29 10:00:23;;;;;;;;;;;4.50;99.90;;;;;;5119301;28;19932;-82
2023/01/29 10:02:55;;;;;;;;;;;4.60;99.90;;;;;;5117972;28;20382;-82
2023/01/29 10:05:41;;;;;;;;;;;4.60;99.90;;;;;;5116397;28;20023;-82
2023/01/29 10:08:07;;;;;;;;;;;4.60;99.90;;;;;;5116903;28;20457;-88
2023/01/29 10:10:43;;;;;;;;;;;4.60;99.90;;;;;;5087987;28;19924;-88
2023/01/29 10:13:41;;;;;;;;;;;4.60;99.90;;;;;;5089818;28;19991;-86
2023/01/29 10:16:15;;;;;;;;;;;4.60;99.90;;;;;;5078175;28;19928;-86
2023/01/29 10:18:40;;;;;;;;;;;4.60;99.90;;;;;;5092213;28;19928;-88
2023/01/29 10:21:26;;;;;;;;;;;4.60;99.90;;;;;;5117978;28;19954;-88
2023/01/29 10:23:59;;;;;;;;;;;4.70;99.90;;;;;;5085713;27;19980;-87
2023/01/29 10:26:26;;;;;;;;;;;4.70;99.90;;;;;;5113095;28;19932;-88
2023/01/29 10:28:53;;;;;;;;;;;4.70;99.90;;;;;;5106090;28;20283;-89
2023/01/29 10:31:35;;;;;;;;;;;4.70;99.90;;;;;;5101204;28;19928;-89
2023/01/29 10:34:12;;;;;;;;;;;4.80;99.90;;;;;;5102059;28;20687;-87
2023/01/29 10:36:44;;;;;;;;;;;4.80;99.90;;;;;;5113511;28;19924;-90
2023/01/29 10:39:20;;;;;;;;;;;4.80;99.90;;;;;;5090570;28;20353;-87
2023/01/29 10:42:05;;;;;;;;;;;4.80;99.90;;;;;;5117206;28;19931;-88
2023/01/29 10:44:56;;;;;;;;;;;4.80;99.90;;;;;;5109001;28;19924;-90
2023/01/29 10:47:21;;;;;;;;;;;4.80;99.90;;;;;;5076334;28;19999;-87
2023/01/29 10:49:56;;;;;;;;;;;4.80;99.90;;;;;;5094391;28;19967;-88
2023/01/29 10:52:31;;;;;;;;;;;4.70;99.90;;;;;;5063085;28;19932;-88
2023/01/29 10:55:15;;;;;;;;;;;4.70;99.90;;;;;;5091009;28;19928;-87
2023/01/29 10:57:48;;;;;;;;;;;4.70;99.90;;;;;;5075128;28;19932;-88
2023/01/29 11:00:34;;;;;;;;;;;4.70;99.90;;;;;;5091211;28;19923;-89
2023/01/29 11:03:10;;;;;;;;;;;4.80;99.90;;;;;;5074777;28;20382;-87
2023/01/29 11:05:41;;;;;;;;;;;4.70;99.90;;;;;;5070347;28;20003;-87
2023/01/29 11:08:12;;;;;;;;;;;4.70;99.90;;;;;;5096316;28;19931;-87
2023/01/29 11:10:43;;;;;;;;;;;4.70;99.90;;;;;;5093934;28;19924;-88
2023/01/29 11:13:12;;;;;;;;;;;4.80;99.90;;;;;;5097405;28;19962;-88
2023/01/29 11:15:37;;;;;;;;;;;4.80;99.90;;;;;;5081322;28;20503;-87
2023/01/29 11:18:14;;;;;;;;;;;4.80;99.90;;;;;;5073342;28;19924;-89
2023/01/29 11:20:44;;;;;;;;;;;4.80;99.90;;;;;;5084674;28;19947;-88
2023/01/29 11:23:24;;;;;;;;;;;4.90;99.90;;;;;;5075555;28;19990;-88
2023/01/29 11:25:54;;;;;;;;;;;4.90;99.90;;;;;;5095773;28;19932;-86
2023/01/29 11:28:38;;;;;;;;;;;4.90;99.90;;;;;;5094184;28;19943;-89
2023/01/29 11:31:21;;;;;;;;;;;4.90;99.90;;;;;;5096990;28;19924;-88
2023/01/29 11:33:47;;;;;;;;;;;5.00;99.90;;;;;;5095462;28;19924;-89
2023/01/29 11:36:20;;;;;;;;;;;5.10;99.90;;;;;;5063830;28;19924;-87
2023/01/29 11:38:45;;;;;;;;;;;5.20;99.90;;;;;;5071922;28;19928;-89
2023/01/29 11:41:21;;;;;;;;;;;5.20;99.90;;;;;;5072886;28;19955;-88
2023/01/29 11:43:46;;;;;;;;;;;5.30;99.90;;;;;;5074908;28;19925;-88
2023/01/29 11:46:14;;;;;;;;;;;5.30;99.90;;;;;;5082171;27;19935;-88
2023/01/29 11:48:44;;;;;;;;;;;5.30;99.90;;;;;;5102790;28;20666;-87
2023/01/29 11:51:19;;;;;;;;;;;5.30;99.90;;;;;;5108587;28;19924;-88
2023/01/29 11:53:48;;;;;;;;;;;5.40;99.90;;;;;;5121228;28;19934;-88
2023/01/29 11:56:15;;;;;;;;;;;5.50;99.90;;;;;;5117589;28;20003;-87
2023/01/29 11:58:41;;;;;;;;;;;5.50;99.90;;;;;;5109464;28;19930;-87
2023/01/29 12:01:08;;;;;;;;;;;5.50;99.90;;;;;;5093300;28;19923;-87
2023/01/29 12:03:36;;;;;;;;;;;5.50;99.90;;;;;;5094537;27;19923;-87
2023/01/29 12:06:04;;;;;;;;;;;5.50;99.90;;;;;;5103211;27;20353;-87
2023/01/29 12:08:33;;;;;;;;;;;5.50;99.90;;;;;;5107058;27;19932;-86
2023/01/29 12:11:10;;;;;;;;;;;5.50;99.90;;;;;;5103733;27;20049;-89
2023/01/29 12:13:36;;;;;;;;;;;5.40;99.90;;;;;;5126817;27;19972;-89
2023/01/29 12:16:10;;;;;;;;;;;5.40;99.90;;;;;;5124031;27;19978;-86
2023/01/29 12:18:41;;;;;;;;;;;5.30;99.90;;;;;;5115146;27;19959;-81
2023/01/29 12:21:12;;;;;;;;;;;5.30;99.90;;;;;;5121913;27;19923;-81
2023/01/29 12:23:57;;;;;;;;;;;5.20;99.90;;;;;;5107576;27;19923;-81
2023/01/29 12:26:43;;;;;;;;;;;5.20;99.90;;;;;;5106986;27;20415;-81
2023/01/29 12:29:27;;;;;;;;;;;5.20;99.90;;;;;;5124589;27;19987;-81
2023/01/29 12:32:05;;;;;;;;;;;5.20;99.90;;;;;;5106924;27;19927;-81
2023/01/29 12:34:30;;;;;;;;;;;5.20;99.90;;;;;;5107612;27;19927;-81
2023/01/29 12:37:08;;;;;;;;;;;5.30;99.90;;;;;;5108579;27;19929;-80
2023/01/29 12:39:34;;;;;;;;;;;5.30;99.90;;;;;;5123615;27;19927;-81
2023/01/29 12:42:15;;;;;;;;;;;5.30;99.90;;;;;;5108066;27;19938;-81
2023/01/29 12:44:44;;;;;;;;;;;5.40;99.90;;;;;;5123777;27;19968;-81
2023/01/29 12:47:14;;;;;;;;;;;5.40;99.90;;;;;;5107135;27;20046;-81
2023/01/29 12:49:40;;;;;;;;;;;5.40;99.90;;;;;;5107712;27;19949;-81
2023/01/29 12:52:05;;;;;;;;;;;5.40;99.90;;;;;;5123391;27;19935;-81
2023/01/29 12:54:37;;;;;;;;;;;5.40;99.90;;;;;;5125165;27;19924;-81
2023/01/29 12:57:06;;;;;;;;;;;5.30;99.90;;;;;;5123824;27;20022;-81
2023/01/29 12:59:36;;;;;;;;;;;5.30;99.90;;;;;;5138912;27;19931;-81
2023/01/29 13:02:08;;;;;;;;;;;5.30;99.90;;;;;;5142335;27;19923;-81
2023/01/29 13:04:40;;;;;;;;;;;5.30;99.90;;;;;;5109326;27;20510;-81
2023/01/29 13:07:10;;;;;;;;;;;5.30;99.90;;;;;;5143481;27;19923;-81
2023/01/29 13:09:38;;;;;;;;;;;5.20;99.90;;;;;;5122281;28;19934;-81
2023/01/29 13:12:09;;;;;;;;;;;5.20;99.90;;;;;;5124728;27;19934;-81
2023/01/29 13:14:51;;;;;;;;;;;5.20;99.90;;;;;;5122906;27;20393;-81
2023/01/29 13:17:38;;;;;;;;;;;5.10;99.90;;;;;;5123795;27;19965;-80
2023/01/29 13:20:19;;;;;;;;;;;5.10;99.90;;;;;;5121310;28;19946;-81
2023/01/29 13:22:45;;;;;;;;;;;5.00;99.90;;;;;;5106010;27;20397;-81
2023/01/29 13:25:15;;;;;;;;;;;5.00;99.90;;;;;;5100619;28;19924;-81
2023/01/29 13:27:41;;;;;;;;;;;5.00;99.90;;;;;;5125779;27;19923;-80
2023/01/29 13:30:07;;;;;;;;;;;5.00;99.90;;;;;;5097285;27;19923;-80
2023/01/29 13:32:34;;;;;;;;;;;5.00;99.90;;;;;;5114756;27;19930;-80
2023/01/29 13:35:03;;;;;;;;;;;4.90;99.90;;;;;;5129312;27;19988;-81
2023/01/29 13:37:31;;;;;;;;;;;4.90;99.90;;;;;;5107057;27;19990;-82
2023/01/29 13:39:58;;;;;;;;;;;4.90;99.90;;;;;;5122606;27;20002;-80
2023/01/29 13:42:32;;;;;;;;;;;4.90;99.90;;;;;;5123869;27;19987;-81
2023/01/29 13:45:00;;;;;;;;;;;4.90;99.90;;;;;;5123114;27;19933;-81
2023/01/29 13:47:30;;;;;;;;;;;4.90;99.90;;;;;;5102205;28;19977;-81
2023/01/29 13:49:59;;;;;;;;;;;4.90;99.90;;;;;;5114514;27;19923;-80
2023/01/29 13:52:31;;;;;;;;;;;4.90;99.90;;;;;;5122062;27;19932;-81
2023/01/29 13:54:59;;;;;;;;;;;4.90;99.90;;;;;;5123931;27;19990;-81
2023/01/29 13:57:43;;;;;;;;;;;4.90;99.90;;;;;;5122075;27;19932;-80
2023/01/29 14:00:21;;;;;;;;;;;5.00;99.90;;;;;;5123128;27;19934;-80
2023/01/29 14:03:12;;;;;;;;;;;5.00;99.90;;;;;;5123683;27;20007;-80
2023/01/29 14:05:42;;;;;;;;;;;5.00;99.90;;;;;;5121768;27;19955;-80
2023/01/29 14:08:07;;;;;;;;;;;5.00;99.90;;;;;;5099051;27;20366;-81
2023/01/29 14:10:34;;;;;;;;;;;4.90;99.90;;;;;;5130367;27;19930;-81
2023/01/29 14:13:00;;;;;;;;;;;4.90;99.90;;;;;;5123705;27;19927;-80
2023/01/29 14:15:27;;;;;;;;;;;4.90;99.90;;;;;;5107191;27;19923;-81
2023/01/29 14:18:04;;;;;;;;;;;4.80;99.90;;;;;;5127561;27;19927;-80
2023/01/29 14:20:37;;;;;;;;;;;4.80;99.90;;;;;;5129218;27;19927;-80
2023/01/29 14:23:03;;;;;;;;;;;4.80;99.90;;;;;;5127711;27;19995;-81
2023/01/29 14:25:34;;;;;;;;;;;4.80;99.90;;;;;;5128815;27;19935;-80
2023/01/29 14:28:00;;;;;;;;;;;4.80;99.90;;;;;;5111234;27;20008;-81
2023/01/29 14:30:28;;;;;;;;;;;4.80;99.90;;;;;;5107603;28;20409;-81
2023/01/29 14:32:54;;;;;;;;;;;4.70;99.90;;;;;;5118041;27;19923;-80
2023/01/29 14:35:22;;;;;;;;;;;4.70;99.90;;;;;;5122287;27;19978;-80
2023/01/29 14:37:49;;;;;;;;;;;4.70;99.90;;;;;;5147776;27;19939;-81
2023/01/29 14:40:21;;;;;;;;;;;4.60;99.90;;;;;;5122722;27;20042;-81
2023/01/29 14:42:58;;;;;;;;;;;4.60;99.90;;;;;;5125617;27;20010;-81
2023/01/29 14:45:30;;;;;;;;;;;4.50;99.90;;;;;;5123517;27;20362;-80
2023/01/29 14:48:03;;;;;;;;;;;4.50;99.90;;;;;;5139516;27;19924;-81
2023/01/29 14:50:31;;;;;;;;;;;4.40;99.90;;;;;;5122706;27;19966;-81
2023/01/29 14:53:12;;;;;;;;;;;4.40;99.90;;;;;;5121463;27;19923;-81
2023/01/29 14:55:38;;;;;;;;;;;4.30;99.90;;;;;;5122439;27;19927;-81
2023/01/29 14:58:04;;;;;;;;;;;4.30;99.90;;;;;;5122429;27;19923;-81
2023/01/29 15:00:33;;;;;;;;;;;4.30;99.90;;;;;;5100951;28;19938;-81
2023/01/29 15:03:00;;;;;;;;;;;4.20;99.90;;;;;;5108268;27;20231;-80
2023/01/29 15:05:36;;;;;;;;;;;4.30;99.90;;;;;;5121201;28;19924;-81
2023/01/29 15:08:07;;;;;;;;;;;4.20;99.90;;;;;;5102382;28;19945;-80
2023/01/29 15:10:38;;;;;;;;;;;4.20;99.90;;;;;;5109228;27;19959;-80